Portada
METAR-TAF:

METAR-TAF

Aeropuertos :

Pionyang, Corea del Norte

Aeropuerto Internacional de Sunan

latitud: 39-02N, longitud: 125-47E, altitud: 36 m

METAR: falta

Hora: 21:32 (13:02 UTC)

Pronóstico

El informe se hizo hace 9 horas y 7 minutos, a las 03:55 UTC
Pronóstico válido del 26 a las 06 UTC al 27 a las 06 UTC
Viento 8 kt del norte-noroeste
Visibilidad: 4000 m
Cielo nuboso a una altura de 2000 ft
neblina

TAF: ZKPY 260355Z 2606/2706 33004MPS 4000 BR BKN020

Observaciones y pronósticos meteorológicos de más de 4000 aeropuertos (mensajes METAR y TAF).

Los puntos amarillos y rojos representan las estaciones disponibles.

Ponga el ratón en el punto deseado para ver el nombre de la estación.

Haga clic para ver las observaciones y los pronósticos meteorológicos.

Para cambiar el mapa : haga clic en los botones verdes con una cruz de color negro para hacer un zoom, en el botón verde con un guión para alejar o en las flechas verdes para mapas adyacentes.


METAR-TAF: